TAF and METAR

METAR for Sola Airport

NVSC 191500Z 00000KT 9999 SCT020 BKN045 25/25 Q1009
Report created 19. mar 16:00
wind 0 knots from N (000°) visibility > 10km scattered clouds (~50% cover) at 2000 feet broken clouds (~75% cover) at 4500 feet Temperature 25° with dewpoint at 25° (Humidity 100.00%) Pressure 1009 hPa

TAF for Sola Airport

TAF NVSC 191000Z 1912/2012 VRB01KT 9999 SCT020 BKN040 INTER1912/1918 7000 -TSRA FEW010 BKN018 FEW025CB OVC035
Report created 19. mar 11:00

between 19. mar 13:00 - 20. mar 13:00

wind 1 knots from various directions visibility > 10km scattered clouds (~50% cover) at 2000 feet broken clouds (~75% cover) at 4000 feet
Sola Airport in Vanuatu at 18m

Latest 5 airports